Time;durP1;ratioP1;P1;durP2;ratioP2;P2;SDS_P1;SDS_P2;PMS_P1;PMS_P2;Temp;Humidity;BMP_temperature;BMP_pressure;BME280_temperature;BME280_humidity;BME280_pressure;Samples;Min_cycle;Max_cycle;Signal;HPM_P1;HPM_P2
2021/12/06 00:01:55;;;;;;;3.13;1.70;;;;;;;17.22;46.02;101032.50;4924728;28;96706;-77
2021/12/06 00:04:31;;;;;;;2.88;1.95;;;;;;;17.20;46.02;101034.38;4921373;28;97027;-71
2021/12/06 00:07:04;;;;;;;3.30;1.95;;;;;;;17.17;46.12;101027.41;4920026;28;100543;-73
2021/12/06 00:09:30;;;;;;;2.67;1.50;;;;;;;17.15;46.02;101042.63;4918821;28;99192;-70
2021/12/06 00:12:00;;;;;;;2.53;1.50;;;;;;;17.14;45.98;101050.72;4921724;28;96938;-81
2021/12/06 00:14:30;;;;;;;3.60;2.00;;;;;;;17.12;46.14;101050.75;4920869;28;96796;-78
2021/12/06 00:16:58;;;;;;;2.45;1.58;;;;;;;17.10;45.88;101055.31;4921453;28;97637;-74
2021/12/06 00:19:24;;;;;;;3.00;1.90;;;;;;;17.10;45.98;101060.63;4903430;28;98045;-71
2021/12/06 00:21:51;;;;;;;2.47;1.55;;;;;;;17.06;46.09;101059.09;4918504;28;97649;-71
2021/12/06 00:24:17;;;;;;;3.45;1.80;;;;;;;17.04;46.14;101063.66;4922381;28;96918;-72
2021/12/06 00:26:43;;;;;;;3.08;1.90;;;;;;;17.03;46.25;101064.59;4920744;28;96986;-72
2021/12/06 00:29:09;;;;;;;3.03;1.50;;;;;;;17.01;46.22;101074.47;4932847;28;98794;-77
2021/12/06 00:31:36;;;;;;;4.25;1.70;;;;;;;16.99;46.21;101079.88;4920731;28;100196;-73
2021/12/06 00:34:06;;;;;;;2.55;1.60;;;;;;;16.97;46.09;101087.06;4920610;28;96969;-75
2021/12/06 00:36:39;;;;;;;2.13;1.70;;;;;;;16.96;46.12;101095.16;4922153;28;96844;-76
2021/12/06 00:39:11;;;;;;;4.18;1.90;;;;;;;16.95;46.16;101096.09;4914477;28;96972;-80
2021/12/06 00:41:39;;;;;;;3.20;1.67;;;;;;;16.93;46.26;101096.16;4913744;28;98194;-79
2021/12/06 00:44:07;;;;;;;2.15;1.60;;;;;;;16.91;46.12;101090.91;4917450;28;98733;-77
2021/12/06 00:46:34;;;;;;;3.25;1.98;;;;;;;16.90;46.21;101085.66;4920774;28;97032;-78
2021/12/06 00:49:00;;;;;;;3.42;1.80;;;;;;;16.87;46.21;101089.34;4918217;28;97044;-74
2021/12/06 00:51:25;;;;;;;4.35;1.90;;;;;;;16.86;46.35;101092.06;4920817;28;97576;-73
2021/12/06 00:53:51;;;;;;;5.03;1.95;;;;;;;16.85;46.26;101091.22;4920456;28;99484;-75
2021/12/06 00:56:16;;;;;;;3.60;1.83;;;;;;;16.84;46.20;101097.50;4920711;28;96787;-83
2021/12/06 00:58:43;;;;;;;4.00;1.80;;;;;;;16.82;46.46;101104.69;4919904;28;96760;-75
2021/12/06 01:01:10;;;;;;;3.10;1.60;;;;;;;16.81;46.20;101104.78;4917662;28;97158;-74
2021/12/06 01:03:38;;;;;;;1.98;1.52;;;;;;;16.80;46.21;101111.03;4918500;28;100401;-75
2021/12/06 01:06:05;;;;;;;3.55;1.60;;;;;;;16.76;46.26;101118.34;4920353;28;100305;-73
2021/12/06 01:08:30;;;;;;;2.83;1.88;;;;;;;16.75;46.40;101117.47;4924195;28;96855;-82
2021/12/06 01:10:59;;;;;;;3.00;1.77;;;;;;;16.75;46.16;101121.94;4920213;28;96853;-71
2021/12/06 01:13:27;;;;;;;3.13;1.80;;;;;;;16.73;46.29;101121.16;4918578;28;98199;-70
2021/12/06 01:15:54;;;;;;;3.55;1.70;;;;;;;16.72;46.40;101122.09;4917942;28;100166;-72
2021/12/06 01:18:20;;;;;;;3.25;1.80;;;;;;;16.69;46.23;101131.09;4921815;28;97143;-75
2021/12/06 01:20:57;;;;;;;4.25;1.92;;;;;;;16.68;46.07;101137.34;4924585;28;96640;-76
2021/12/06 01:23:27;;;;;;;2.83;1.80;;;;;;;16.68;46.44;101139.19;4920041;28;96726;-79
2021/12/06 01:31:19;;;;;;;2.58;1.80;;;;;;;16.61;46.28;101136.81;4920774;28;97290;-73
2021/12/06 01:39:21;;;;;;;2.72;1.90;;;;;;;16.57;46.35;101153.00;4924695;28;100488;-73
2021/12/06 01:41:51;;;;;;;2.38;1.80;;;;;;;16.55;46.27;101169.06;4918077;28;97106;-71
2021/12/06 01:44:24;;;;;;;3.67;1.90;;;;;;;16.54;46.51;101164.69;4903073;28;96780;-78
2021/12/06 01:47:15;;;;;;;4.18;2.00;;;;;;;16.54;46.43;101169.13;4932416;28;96981;-71
2021/12/06 01:49:49;;;;;;;2.83;1.77;;;;;;;16.51;46.35;101167.47;4928422;28;117264;-71
2021/12/06 01:52:33;;;;;;;2.90;1.93;;;;;;;16.51;46.50;101174.63;4941680;28;98864;-80
2021/12/06 01:55:00;;;;;;;4.45;2.25;;;;;;;16.50;46.55;101173.75;4937696;28;97052;-72
2021/12/06 01:57:29;;;;;;;2.63;2.13;;;;;;;16.48;46.39;101177.44;4948128;28;96793;-75
2021/12/06 01:59:55;;;;;;;2.17;1.70;;;;;;;16.46;46.47;101172.19;4963250;28;102799;-73
2021/12/06 02:02:24;;;;;;;2.75;1.80;;;;;;;16.45;46.51;101173.13;4954972;28;100477;-71
2021/12/06 02:04:50;;;;;;;3.00;1.70;;;;;;;16.44;46.47;101179.38;4965200;28;97053;-71
2021/12/06 02:07:21;;;;;;;1.90;1.60;;;;;;;16.42;46.47;101184.78;4939058;28;96944;-76
2021/12/06 02:09:52;;;;;;;2.15;1.90;;;;;;;16.41;46.41;101180.41;4939952;28;97089;-73
2021/12/06 02:12:19;;;;;;;3.47;1.80;;;;;;;16.40;46.47;101186.66;4936912;28;100831;-71
2021/12/06 02:15:09;;;;;;;3.17;2.03;;;;;;;16.40;46.38;101183.13;4940269;28;97000;-71
2021/12/06 02:17:41;;;;;;;2.92;2.10;;;;;;;16.39;46.56;101186.72;4961601;28;97343;-81
2021/12/06 02:20:23;;;;;;;2.42;1.90;;;;;;;16.36;46.43;101185.06;4937450;28;97211;-74
2021/12/06 02:22:50;;;;;;;2.95;2.20;;;;;;;16.37;46.79;101193.94;4935535;28;100925;-76
2021/12/06 02:25:19;;;;;;;3.50;2.00;;;;;;;16.35;46.38;101182.50;4954935;28;100576;-72
2021/12/06 02:27:49;;;;;;;3.03;2.00;;;;;;;16.34;46.60;101183.44;4936151;28;97528;-81
2021/12/06 02:30:20;;;;;;;2.72;2.00;;;;;;;16.33;46.69;101192.34;4968792;28;96892;-83
2021/12/06 02:32:47;;;;;;;3.63;2.10;;;;;;;16.32;46.55;101190.63;4948868;28;97129;-80
2021/12/06 02:35:18;;;;;;;2.25;1.70;;;;;;;16.30;46.57;101185.38;4940263;28;96974;-72
2021/12/06 02:37:46;;;;;;;2.95;1.85;;;;;;;16.29;46.58;101186.31;4937295;28;100607;-72
2021/12/06 02:40:20;;;;;;;2.58;2.00;;;;;;;16.27;46.71;101189.06;4937908;28;97100;-72
2021/12/06 02:42:47;;;;;;;3.25;2.00;;;;;;;16.27;46.51;101190.84;4927011;28;96900;-72
2021/12/06 02:45:19;;;;;;;2.80;2.22;;;;;;;16.26;46.53;101197.09;4928145;28;100509;-71
2021/12/06 02:47:52;;;;;;;2.60;1.83;;;;;;;16.24;46.66;101198.97;4950459;28;99923;-72
2021/12/06 02:50:24;;;;;;;3.28;2.05;;;;;;;16.25;46.55;101203.34;4950743;28;97121;-73
2021/12/06 02:52:49;;;;;;;2.65;2.03;;;;;;;16.23;46.68;101199.91;4936988;28;98001;-73
2021/12/06 02:55:34;;;;;;;2.88;2.03;;;;;;;16.22;46.79;101198.22;4947740;28;97255;-76
2021/12/06 02:58:13;;;;;;;2.58;2.00;;;;;;;16.20;46.49;101205.38;4955352;28;99882;-80
2021/12/06 03:00:42;;;;;;;3.08;2.33;;;;;;;16.19;46.64;101207.16;4955727;28;100615;-72
2021/12/06 03:03:08;;;;;;;2.97;2.10;;;;;;;16.17;46.60;101206.41;4938124;28;96705;-75
2021/12/06 03:05:33;;;;;;;3.05;2.20;;;;;;;16.15;46.71;101209.13;4940393;28;96580;-72
2021/12/06 03:08:00;;;;;;;3.38;2.17;;;;;;;16.16;46.52;101210.00;4936377;28;99928;-73
2021/12/06 03:10:28;;;;;;;2.30;1.88;;;;;;;16.14;46.71;101209.22;4936600;28;97874;-72
2021/12/06 03:12:54;;;;;;;3.05;2.30;;;;;;;16.13;46.52;101212.78;4927780;28;97013;-71
2021/12/06 03:15:20;;;;;;;2.60;1.90;;;;;;;16.11;46.65;101212.88;4935978;28;96933;-72
2021/12/06 03:17:47;;;;;;;3.08;2.22;;;;;;;16.10;46.49;101215.59;4959255;28;97142;-72
2021/12/06 03:20:14;;;;;;;2.83;2.30;;;;;;;16.09;46.80;101220.06;4938242;28;100331;-72
2021/12/06 03:22:42;;;;;;;3.50;2.03;;;;;;;16.10;46.72;101220.91;4939453;28;98530;-71
2021/12/06 03:25:14;;;;;;;3.22;2.30;;;;;;;16.07;46.55;101229.91;4936062;28;96979;-80
2021/12/06 03:27:39;;;;;;;2.20;2.00;;;;;;;16.06;46.69;101222.84;4936138;28;97087;-71
2021/12/06 03:30:11;;;;;;;2.30;1.90;;;;;;;16.07;46.64;101231.72;4936676;28;100731;-71
2021/12/06 03:32:37;;;;;;;2.35;2.00;;;;;;;16.06;46.73;101228.19;4936162;28;97858;-70
2021/12/06 03:35:07;;;;;;;3.63;2.40;;;;;;;16.04;46.75;101230.03;4935109;28;96951;-72
2021/12/06 03:37:33;;;;;;;2.42;2.20;;;;;;;16.04;46.73;101231.84;4951205;28;97176;-81
2021/12/06 03:39:58;;;;;;;3.42;2.40;;;;;;;16.02;46.98;101228.41;4934961;28;97148;-72
2021/12/06 03:42:28;;;;;;;3.17;2.10;;;;;;;16.01;46.77;101239.97;4936121;28;99975;-71
2021/12/06 03:44:53;;;;;;;2.50;2.20;;;;;;;15.99;46.71;101240.03;4939126;28;96845;-71
2021/12/06 03:47:30;;;;;;;3.58;2.33;;;;;;;15.99;46.65;101246.22;4958971;28;96950;-84
2021/12/06 03:49:57;;;;;;;2.40;2.15;;;;;;;15.98;46.82;101247.13;4945243;28;97078;-72
2021/12/06 03:52:23;;;;;;;3.78;2.20;;;;;;;15.97;46.68;101242.75;4934709;28;99555;-72
2021/12/06 03:54:51;;;;;;;2.53;2.08;;;;;;;15.95;46.73;101242.00;4934294;28;97830;-82
2021/12/06 03:57:19;;;;;;;3.42;2.50;;;;;;;15.95;46.60;101252.63;4946430;28;97056;-73
2021/12/06 03:59:47;;;;;;;3.35;2.15;;;;;;;15.94;46.59;101258.00;4955338;28;97001;-71
2021/12/06 04:02:14;;;;;;;2.97;2.10;;;;;;;15.91;46.75;101248.38;4970001;28;97248;-73
2021/12/06 04:04:40;;;;;;;3.08;2.10;;;;;;;15.91;46.64;101245.72;4943380;28;100555;-71
2021/12/06 04:07:08;;;;;;;3.08;2.10;;;;;;;15.90;46.80;101249.31;4956596;28;97106;-72
2021/12/06 04:09:37;;;;;;;2.88;2.13;;;;;;;15.90;46.78;101241.31;4956963;28;96823;-82
2021/12/06 04:12:08;;;;;;;3.47;2.22;;;;;;;15.89;46.73;101244.91;4939006;28;96908;-72
2021/12/06 04:14:35;;;;;;;3.53;2.45;;;;;;;15.87;46.82;101252.13;4957004;28;99450;-72
2021/12/06 04:17:01;;;;;;;3.00;2.30;;;;;;;15.86;46.78;101250.41;4940204;28;98736;-77
2021/12/06 04:19:27;;;;;;;3.10;2.08;;;;;;;15.84;46.79;101249.59;4938916;28;96921;-76
2021/12/06 04:21:53;;;;;;;3.47;2.70;;;;;;;15.84;46.77;101244.28;4955146;28;96787;-75
2021/12/06 04:24:18;;;;;;;2.72;2.30;;;;;;;15.82;46.77;101240.78;4939000;28;96878;-73
2021/12/06 04:26:45;;;;;;;5.40;2.10;;;;;;;15.81;46.77;101247.03;4959814;28;99037;-72
2021/12/06 04:29:13;;;;;;;3.53;2.40;;;;;;;15.79;46.80;101240.91;4966964;28;97163;-72
2021/12/06 04:31:48;;;;;;;2.28;1.98;;;;;;;15.79;46.86;101243.56;4933714;28;96961;-72
2021/12/06 04:34:16;;;;;;;3.05;2.38;;;;;;;15.78;46.91;101242.72;4958779;28;96825;-72
2021/12/06 04:36:43;;;;;;;2.90;2.25;;;;;;;15.78;46.90;101249.81;4955492;28;100625;-72
2021/12/06 04:39:14;;;;;;;3.22;2.20;;;;;;;15.76;46.80;101249.91;4930359;28;100870;-72
2021/12/06 04:41:41;;;;;;;4.28;2.20;;;;;;;15.76;46.82;101255.22;4938926;28;97073;-72
2021/12/06 04:44:08;;;;;;;4.28;2.42;;;;;;;15.75;46.96;101261.47;4938403;28;96978;-75
2021/12/06 04:46:34;;;;;;;4.13;2.20;;;;;;;15.74;47.19;101265.06;4954470;28;96864;-82
2021/12/06 04:49:00;;;;;;;2.53;2.08;;;;;;;15.74;46.83;101262.41;4973549;28;100790;-73
2021/12/06 04:51:26;;;;;;;3.13;2.03;;;;;;;15.73;46.85;101258.00;4954248;28;96917;-70
2021/12/06 04:53:52;;;;;;;3.50;2.33;;;;;;;15.71;46.89;101261.69;4955833;28;96834;-73
2021/12/06 04:56:37;;;;;;;3.38;2.20;;;;;;;15.69;46.96;101265.25;4931571;28;113454;-72
2021/12/06 04:59:09;;;;;;;;;;;;;;;15.69;46.95;101267.06;4971235;28;98307;-73
2021/12/06 05:01:35;;;;;;;3.30;2.30;;;;;;;15.69;47.03;101267.06;4936849;28;100740;-72
2021/12/06 05:04:09;;;;;;;2.90;2.22;;;;;;;15.68;46.94;101273.31;4940192;28;96889;-73
2021/12/06 05:06:42;;;;;;;3.83;2.50;;;;;;;15.66;46.77;101273.41;4923241;28;96633;-72
2021/12/06 05:09:15;;;;;;;3.60;2.45;;;;;;;15.71;46.85;101281.16;4925200;28;96786;-73
2021/12/06 05:11:42;;;;;;;3.70;2.30;;;;;;;15.81;46.58;101287.78;4951305;28;99909;-72
2021/12/06 05:14:09;;;;;;;7.15;2.08;;;;;;;15.93;46.43;101291.72;4929258;28;97531;-73
2021/12/06 05:16:36;;;;;;;3.45;2.30;;;;;;;16.05;46.26;101292.94;4935335;28;96726;-73
2021/12/06 05:19:04;;;;;;;2.97;1.98;;;;;;;16.19;46.37;101288.78;4932058;28;96686;-74
2021/12/06 05:21:31;;;;;;;3.35;2.20;;;;;;;16.34;46.08;101287.19;4937022;28;97168;-73
2021/12/06 05:23:57;;;;;;;3.15;2.40;;;;;;;16.47;45.57;101291.00;4956200;28;100731;-78
2021/12/06 05:26:22;;;;;;;3.22;2.13;;;;;;;16.61;45.41;101290.31;4924083;28;96921;-72
2021/12/06 05:28:49;;;;;;;2.70;1.92;;;;;;;16.71;45.50;101296.03;4954045;28;96698;-72
2021/12/06 05:31:19;;;;;;;3.10;2.15;;;;;;;16.81;45.61;101301.78;4938808;28;96815;-72
2021/12/06 05:33:55;;;;;;;2.50;2.15;;;;;;;16.87;45.44;101302.38;4939012;28;100407;-71
2021/12/06 05:36:21;;;;;;;2.40;1.83;;;;;;;16.92;45.05;101294.16;4933163;28;97068;-73
2021/12/06 05:38:53;;;;;;;2.97;2.00;;;;;;;16.97;45.19;101301.94;4955016;28;96668;-79
2021/12/06 05:41:20;;;;;;;2.70;2.00;;;;;;;16.98;45.04;101299.19;4964152;28;96832;-77
2021/12/06 05:43:46;;;;;;;3.00;2.08;;;;;;;17.00;44.83;101296.44;4939501;28;97812;-73
2021/12/06 05:46:13;;;;;;;2.20;1.90;;;;;;;17.00;44.68;101299.97;4887092;28;97838;-74
2021/12/06 05:48:40;;;;;;;2.75;2.08;;;;;;;17.00;44.75;101304.41;4939881;28;97036;-72
2021/12/06 05:51:06;;;;;;;2.35;1.95;;;;;;;16.97;44.71;101305.44;4940039;28;97039;-71
2021/12/06 05:53:33;;;;;;;4.25;2.20;;;;;;;16.98;44.56;101309.84;4957449;28;96820;-75
2021/12/06 05:56:00;;;;;;;2.97;2.03;;;;;;;16.98;44.79;101309.84;4941670;28;97799;-72
2021/12/06 05:58:27;;;;;;;3.05;1.90;;;;;;;16.98;44.70;101312.50;4938447;28;96961;-79
2021/12/06 06:00:54;;;;;;;3.65;2.10;;;;;;;16.97;44.77;101304.59;4948622;28;97064;-85
2021/12/06 06:03:20;;;;;;;2.67;1.90;;;;;;;16.99;44.68;101303.56;4947596;28;96710;-71
2021/12/06 06:05:45;;;;;;;2.90;1.90;;;;;;;16.99;44.86;101300.91;4940839;28;98121;-72
2021/12/06 06:08:11;;;;;;;2.15;1.92;;;;;;;17.01;44.69;101299.03;4938375;28;99307;-71
2021/12/06 06:10:37;;;;;;;3.20;1.90;;;;;;;17.04;44.73;101298.00;4938229;28;96799;-69
2021/12/06 06:13:04;;;;;;;3.00;1.80;;;;;;;17.07;44.74;101303.19;4933394;28;96979;-71
2021/12/06 06:15:30;;;;;;;4.07;1.90;;;;;;;17.14;44.66;101299.28;4942609;28;96623;-71
2021/12/06 06:17:57;;;;;;;6.32;1.75;;;;;;;17.19;44.86;101299.91;4936780;28;98017;-70
2021/12/06 06:20:49;;;;;;;5.93;2.17;;;;;;;17.25;45.24;101300.53;4937558;28;97194;-71
2021/12/06 06:23:15;;;;;;;5.57;2.22;;;;;;;17.28;45.63;101311.88;4936152;28;97097;-72
2021/12/06 06:25:41;;;;;;;4.75;2.30;;;;;;;17.31;45.35;101318.84;4958809;28;97142;-71
2021/12/06 06:28:07;;;;;;;9.13;2.67;;;;;;;17.31;45.47;101322.41;4957665;28;98704;-70
2021/12/06 06:30:35;;;;;;;28.33;3.50;;;;;;;17.34;45.64;101324.03;4959234;28;98382;-78
2021/12/06 06:33:01;;;;;;;4.65;2.10;;;;;;;17.36;45.30;101323.00;4963807;28;96925;-78
2021/12/06 06:35:27;;;;;;;5.00;2.05;;;;;;;17.35;45.34;101323.94;4957606;28;97116;-73
2021/12/06 06:37:53;;;;;;;11.57;2.40;;;;;;;17.39;45.32;101322.00;4960697;28;96919;-76
2021/12/06 06:40:19;;;;;;;9.18;2.60;;;;;;;17.40;45.65;101323.72;4948643;28;97871;-75
2021/12/06 06:42:45;;;;;;;10.13;2.63;;;;;;;17.53;45.71;101319.47;4954212;28;96864;-71
2021/12/06 06:45:14;;;;;;;15.18;3.08;;;;;;;17.60;45.61;101324.50;4957048;28;97111;-68
2021/12/06 06:47:40;;;;;;;15.27;3.10;;;;;;;17.66;45.61;101332.19;4943479;28;97053;-70
2021/12/06 06:50:07;;;;;;;8.25;3.00;;;;;;;17.74;45.66;101329.09;4955946;28;99034;-70
2021/12/06 06:52:32;;;;;;;11.30;2.45;;;;;;;17.84;45.58;101336.53;4948098;28;97153;-66
2021/12/06 06:54:59;;;;;;;17.73;3.22;;;;;;;17.96;45.59;101334.16;4952923;28;96935;-66
2021/12/06 06:57:27;;;;;;;10.52;2.65;;;;;;;18.05;45.49;101333.69;4957685;28;97173;-65
2021/12/06 06:59:53;;;;;;;10.45;2.97;;;;;;;18.13;45.47;101334.13;4959939;28;97576;-68
2021/12/06 07:02:18;;;;;;;7.70;3.05;;;;;;;18.23;45.22;101338.97;4945674;28;97680;-67
2021/12/06 07:04:44;;;;;;;8.02;2.88;;;;;;;18.30;45.17;101341.22;4958196;28;97004;-68
2021/12/06 07:07:10;;;;;;;5.60;2.92;;;;;;;18.40;44.79;101341.59;4957286;28;96787;-67
2021/12/06 07:09:35;;;;;;;10.40;2.97;;;;;;;18.45;44.76;101339.50;4956382;28;96928;-69
2021/12/06 07:12:02;;;;;;;10.73;2.92;;;;;;;18.52;44.69;101336.50;4952752;28;98737;-70
2021/12/06 07:14:28;;;;;;;6.63;3.00;;;;;;;18.53;44.59;101339.09;4955919;28;98698;-70
2021/12/06 07:16:54;;;;;;;7.72;2.85;;;;;;;18.53;44.50;101339.09;4956088;28;96998;-70
2021/12/06 07:19:19;;;;;;;7.78;2.80;;;;;;;18.54;44.46;101332.81;4956005;28;96942;-67
2021/12/06 07:21:45;;;;;;;11.35;3.28;;;;;;;18.59;46.44;101336.06;4961112;28;96763;-65
2021/12/06 07:24:11;;;;;;;7.70;2.88;;;;;;;18.57;44.33;101345.94;4957411;28;98409;-68
2021/12/06 07:26:36;;;;;;;8.98;3.10;;;;;;;18.57;44.26;101348.63;4955872;28;96906;-67
2021/12/06 07:29:04;;;;;;;6.78;2.88;;;;;;;18.56;44.10;101354.94;4956310;28;112316;-68
2021/12/06 07:31:30;;;;;;;10.40;2.97;;;;;;;18.58;44.16;101353.03;4981307;28;96900;-68
2021/12/06 07:33:57;;;;;;;5.97;2.45;;;;;;;18.59;43.96;101361.91;4960843;28;98240;-67
2021/12/06 07:36:25;;;;;;;4.22;2.80;;;;;;;18.55;43.98;101363.88;4958670;28;98799;-66
2021/12/06 07:38:52;;;;;;;8.90;2.70;;;;;;;18.49;43.97;101358.88;4959549;28;97050;-71
2021/12/06 07:41:23;;;;;;;6.00;2.58;;;;;;;18.45;43.90;101355.50;4960192;28;96881;-67
2021/12/06 07:43:50;;;;;;;9.77;2.90;;;;;;;18.42;43.85;101362.84;4963305;28;97037;-69
2021/12/06 07:46:16;;;;;;;8.05;2.50;;;;;;;18.38;43.88;101364.81;4959620;28;97679;-68
2021/12/06 07:48:43;;;;;;;4.47;2.50;;;;;;;18.36;43.90;101376.53;4960868;28;99153;-71
2021/12/06 07:51:09;;;;;;;4.18;2.35;;;;;;;18.32;44.03;101373.16;4954577;28;98420;-67
2021/12/06 07:53:38;;;;;;;7.80;2.65;;;;;;;18.28;43.86;101379.63;4960230;28;118869;-69
2021/12/06 07:56:03;;;;;;;7.68;2.90;;;;;;;18.24;43.77;101383.38;4961212;28;97041;-70
2021/12/06 07:58:29;;;;;;;4.82;2.70;;;;;;;18.21;43.76;101387.09;4948829;28;97326;-66
2021/12/06 08:00:55;;;;;;;4.85;2.75;;;;;;;18.19;43.67;101380.13;4930610;28;97043;-65
2021/12/06 08:03:23;;;;;;;6.13;2.70;;;;;;;18.22;43.67;101379.94;4953965;28;96785;-66
2021/12/06 08:05:51;;;;;;;5.07;2.92;;;;;;;18.26;43.66;101377.00;4935386;28;98187;-72
2021/12/06 08:08:25;;;;;;;6.03;2.90;;;;;;;18.29;43.55;101376.00;4932746;28;109008;-65
2021/12/06 08:10:59;;;;;;;5.43;2.88;;;;;;;18.31;43.63;101382.13;4948827;28;96978;-67
2021/12/06 08:13:28;;;;;;;6.35;3.00;;;;;;;18.34;43.65;101381.94;4935848;28;96950;-73
2021/12/06 08:16:00;;;;;;;7.20;3.13;;;;;;;18.34;43.52;101373.09;4941240;28;96809;-66
2021/12/06 08:18:26;;;;;;;4.82;2.83;;;;;;;18.31;43.63;101384.78;4939468;28;98964;-67
2021/12/06 08:20:55;;;;;;;6.03;3.08;;;;;;;18.29;43.62;101376.84;4939174;28;98722;-68
2021/12/06 08:23:20;;;;;;;7.43;2.90;;;;;;;18.27;43.63;101373.41;4951559;28;96948;-68
2021/12/06 08:25:48;;;;;;;5.80;3.03;;;;;;;18.25;43.49;101366.44;4923821;28;96964;-65
2021/12/06 08:28:15;;;;;;;7.90;3.28;;;;;;;18.24;43.65;101359.38;4921990;28;98285;-69
2021/12/06 08:30:42;;;;;;;9.48;3.35;;;;;;;18.22;43.54;101354.13;4952633;28;100433;-65
2021/12/06 08:33:08;;;;;;;8.05;3.88;;;;;;;18.18;43.70;101351.69;4923663;28;97534;-64
2021/12/06 08:35:38;;;;;;;7.82;4.53;;;;;;;18.15;43.58;101358.06;4940309;28;96962;-65
2021/12/06 08:38:05;;;;;;;9.68;5.28;;;;;;;18.14;43.66;101345.69;4947885;28;96984;-64
2021/12/06 08:40:32;;;;;;;10.25;5.07;;;;;;;18.14;43.66;101348.34;4943161;28;97641;-65
2021/12/06 08:42:58;;;;;;;9.57;5.80;;;;;;;18.15;43.51;101347.41;4937373;28;100156;-64
2021/12/06 08:45:26;;;;;;;8.82;5.00;;;;;;;18.15;43.69;101352.75;4939742;28;96768;-65
2021/12/06 08:47:52;;;;;;;12.85;5.50;;;;;;;18.15;43.55;101352.75;4942714;28;97002;-67
2021/12/06 08:50:22;;;;;;;9.57;5.00;;;;;;;18.14;43.64;101351.84;4939686;28;97668;-65
2021/12/06 08:52:49;;;;;;;8.43;4.90;;;;;;;18.13;43.59;101354.63;4938807;28;97486;-65
2021/12/06 08:55:17;;;;;;;9.00;4.95;;;;;;;18.14;43.73;101357.19;4938998;28;96883;-67
2021/12/06 08:57:43;;;;;;;7.75;4.63;;;;;;;18.13;43.66;101366.16;4939194;28;96908;-66
2021/12/06 09:00:15;;;;;;;10.85;4.40;;;;;;;18.13;43.52;101371.47;4939478;28;97109;-65
2021/12/06 09:02:41;;;;;;;8.25;4.43;;;;;;;18.14;43.65;101372.34;4939755;28;97765;-67
2021/12/06 09:05:08;;;;;;;8.75;4.65;;;;;;;18.15;43.65;101384.75;4939047;28;97295;-67
2021/12/06 09:07:34;;;;;;;6.70;4.05;;;;;;;18.15;43.77;101390.09;4971731;28;96904;-68
2021/12/06 09:10:00;;;;;;;6.05;4.07;;;;;;;18.16;43.50;101395.34;4942227;28;96872;-66
2021/12/06 09:12:30;;;;;;;6.10;3.90;;;;;;;18.16;43.45;101397.16;4939549;28;97719;-65
2021/12/06 09:15:02;;;;;;;8.52;3.67;;;;;;;18.18;43.56;101407.75;4938621;28;97465;-67
2021/12/06 09:17:28;;;;;;;5.13;3.42;;;;;;;18.18;43.60;101405.06;4938533;28;96955;-66
2021/12/06 09:19:54;;;;;;;5.25;3.85;;;;;;;18.18;43.59;101410.41;4939147;28;96939;-67
2021/12/06 09:22:21;;;;;;;6.45;3.72;;;;;;;18.16;43.60;101415.84;4956749;28;96982;-66
2021/12/06 09:24:49;;;;;;;5.15;3.10;;;;;;;18.06;43.72;101409.25;4940413;28;97643;-66
2021/12/06 09:27:15;;;;;;;6.60;3.38;;;;;;;18.06;43.61;101404.78;4968682;28;97603;-67
2021/12/06 09:29:41;;;;;;;5.97;3.50;;;;;;;18.10;43.50;101408.13;4938360;28;96827;-66
2021/12/06 09:32:12;;;;;;;5.75;3.22;;;;;;;18.10;43.52;101410.81;4941714;28;96985;-67
2021/12/06 09:34:43;;;;;;;6.38;3.03;;;;;;;18.10;43.42;101409.00;4931121;28;113968;-66
2021/12/06 09:37:10;;;;;;;5.95;3.20;;;;;;;18.10;43.49;101409.00;4938741;28;97623;-64
2021/12/06 09:39:35;;;;;;;4.60;3.13;;;;;;;18.10;43.46;101403.69;4965341;28;96926;-66
2021/12/06 09:42:02;;;;;;;7.15;3.08;;;;;;;18.09;43.54;101406.41;4943083;28;96912;-67
2021/12/06 09:44:28;;;;;;;7.72;3.35;;;;;;;18.10;43.54;101408.13;4940113;28;97096;-67
2021/12/06 09:46:55;;;;;;;8.23;3.38;;;;;;;18.17;43.53;101404.19;4939004;28;98337;-68
2021/12/06 09:49:22;;;;;;;4.97;2.72;;;;;;;18.27;43.51;101409.91;4952204;28;98674;-66
2021/12/06 09:51:58;;;;;;;5.70;3.17;;;;;;;18.35;43.43;101407.69;4956520;28;97114;-68
2021/12/06 09:54:34;;;;;;;6.00;3.13;;;;;;;18.41;43.48;101418.03;4938854;28;97101;-67
2021/12/06 09:57:04;;;;;;;6.85;3.20;;;;;;;18.45;43.64;101414.25;4940610;28;97056;-67
2021/12/06 09:59:31;;;;;;;5.82;3.00;;;;;;;18.48;43.71;101407.88;4937724;28;98884;-67
2021/12/06 10:02:02;;;;;;;4.47;2.90;;;;;;;18.52;43.64;101411.25;4939575;28;96894;-69
2021/12/06 10:04:34;;;;;;;3.80;2.60;;;;;;;18.53;43.73;101413.84;4938022;28;96852;-66
2021/12/06 10:06:59;;;;;;;4.45;2.90;;;;;;;18.55;43.63;101411.06;4938164;28;97012;-67
2021/12/06 10:09:26;;;;;;;6.07;2.90;;;;;;;18.56;43.85;101397.66;4954725;28;100147;-66
2021/12/06 10:11:55;;;;;;;3.92;2.60;;;;;;;18.59;43.72;101400.13;4937555;28;97525;-67
2021/12/06 10:14:21;;;;;;;5.78;2.70;;;;;;;18.59;43.70;101381.44;4941210;28;96821;-66
2021/12/06 10:16:47;;;;;;;4.47;2.50;;;;;;;18.62;43.57;101386.63;4937226;28;97005;-67
2021/12/06 10:19:15;;;;;;;4.60;2.83;;;;;;;18.67;43.45;101390.84;4938753;28;96988;-67
2021/12/06 10:21:43;;;;;;;9.15;2.70;;;;;;;18.70;43.41;101386.19;4938999;28;97743;-68
2021/12/06 10:24:18;;;;;;;5.97;3.15;;;;;;;18.73;43.48;101391.34;4936506;28;97022;-68
2021/12/06 10:26:44;;;;;;;12.27;3.67;;;;;;;18.76;43.62;101382.31;4937203;28;97069;-70
2021/12/06 10:29:21;;;;;;;14.48;3.75;;;;;;;18.74;43.88;101369.03;4938168;28;98340;-69
2021/12/06 10:31:51;;;;;;;16.00;4.13;;;;;;;18.72;43.79;101370.94;4936774;28;98817;-70
2021/12/06 10:34:25;;;;;;;15.85;4.68;;;;;;;18.71;44.14;101365.69;4937085;28;97471;-67
2021/12/06 10:36:52;;;;;;;16.77;5.68;;;;;;;18.73;44.45;101366.47;4938442;28;97022;-70
2021/12/06 10:39:18;;;;;;;22.92;5.82;;;;;;;18.73;44.55;101361.13;4937276;28;96944;-67
2021/12/06 11:07:19;;;;;;;35.55;8.80;;;;;;;20.75;43.91;101318.63;4850227;27;96663;-79
2021/12/06 11:10:12;;;;;;;26.38;7.97;;;;;;;20.12;45.31;101315.50;5000140;28;96565;-77
2021/12/06 11:12:37;;;;;;;38.13;8.93;;;;;;;19.82;45.90;101308.41;4992039;28;96754;-78
2021/12/06 11:15:12;;;;;;;26.95;8.27;;;;;;;19.64;46.41;101312.22;4993349;28;96981;-75
2021/12/06 11:17:37;;;;;;;27.83;8.02;;;;;;;19.50;46.40;101303.22;5006049;28;97632;-79
2021/12/06 11:20:03;;;;;;;30.95;7.85;;;;;;;19.42;46.58;101305.50;5013206;27;110104;-72
2021/12/06 11:22:29;;;;;;;25.13;7.82;;;;;;;19.36;46.67;101293.34;5015629;28;96760;-77
2021/12/06 11:26:01;;;;;;;22.77;6.88;;;;;;;21.18;42.01;101285.41;4967879;27;96596;-63
2021/12/06 11:28:30;;;;;;;27.33;7.45;;;;;;;21.94;40.50;101272.13;4946249;28;96888;-65
2021/12/06 11:31:05;;;;;;;19.17;6.55;;;;;;;22.26;39.17;101268.94;4944326;28;98257;-62
2021/12/06 11:33:34;;;;;;;20.55;6.25;;;;;;;22.26;39.33;101263.56;4890557;28;98582;-59
2021/12/06 11:36:57;;;;;;;19.88;6.45;;;;;;;22.32;39.28;101268.50;4895769;27;96789;-60
2021/12/06 11:39:28;;;;;;;22.58;6.63;;;;;;;22.35;38.92;101267.41;4998200;28;96796;-62
2021/12/06 11:44:32;;;;;;;24.73;6.03;;;;;;;22.51;38.31;101267.19;4812225;27;96598;-57
2021/12/06 11:47:34;;;;;;;20.40;6.45;;;;;;;22.79;37.82;101267.78;4897970;28;96774;-63
2021/12/06 11:52:48;;;;;;;16.88;5.53;;;;;;;23.04;37.41;101245.25;4906820;27;96823;-61
2021/12/06 11:55:13;;;;;;;18.80;5.88;;;;;;;23.12;37.38;101244.69;4965434;27;102756;-56
2021/12/06 11:57:44;;;;;;;18.05;6.22;;;;;;;23.19;36.40;101240.56;4979685;28;97795;-59
2021/12/06 12:00:13;;;;;;;16.52;5.72;;;;;;;23.05;37.09;101229.97;4893340;27;97748;-61
2021/12/06 12:02:57;;;;;;;14.38;5.70;;;;;;;22.91;37.09;101239.97;4893002;27;97166;-69
2021/12/06 12:05:22;;;;;;;16.85;5.68;;;;;;;22.81;37.21;101244.34;5000067;28;96955;-64
2021/12/06 12:07:52;;;;;;;12.55;5.00;;;;;;;22.76;37.38;101241.13;4999306;28;96954;-60
2021/12/06 12:10:31;;;;;;;17.05;5.07;;;;;;;22.65;37.26;101234.75;5001638;28;97718;-58
2021/12/06 12:12:58;;;;;;;15.43;5.47;;;;;;;22.58;37.44;101235.34;5000894;28;97111;-59
2021/12/06 12:15:25;;;;;;;15.07;5.15;;;;;;;22.44;37.63;101233.66;5000343;28;96995;-59